createdAt,value
2022-10-14T00:01:09.256Z,96067.84
2022-10-14T00:03:38.113Z,96062.75
2022-10-14T00:06:06.757Z,96073.75
2022-10-14T00:08:33.874Z,96070.59
2022-10-14T00:11:10.046Z,96067.47
2022-10-14T00:13:37.683Z,96061.94
2022-10-14T00:16:05.365Z,96060.34
2022-10-14T00:18:32.747Z,96068.25
2022-10-14T00:21:02.404Z,96067.44
2022-10-14T00:23:30.717Z,96069.81
2022-10-14T00:25:57.780Z,96067.44
2022-10-14T00:28:31.392Z,96075.69
2022-10-14T00:31:00.910Z,96079.22
2022-10-14T00:33:28.225Z,96076.09
2022-10-14T00:35:59.507Z,96073.75
2022-10-14T00:38:31.484Z,96076.88
2022-10-14T00:40:58.757Z,96069.78
2022-10-14T00:43:27.632Z,96077.66
2022-10-14T00:45:54.724Z,96073.75
2022-10-14T00:48:25.159Z,96069.00
2022-10-14T00:50:57.075Z,96062.72
2022-10-14T00:53:24.175Z,96070.56
2022-10-14T00:55:52.993Z,96079.22
2022-10-14T00:58:23.735Z,96071.75
2022-10-14T01:00:50.931Z,96069.78
2022-10-14T01:03:21.657Z,96074.91
2022-10-14T01:06:21.406Z,96082.00
2022-10-14T01:09:07.336Z,96086.31
2022-10-14T01:12:27.071Z,96078.44
2022-10-14T01:15:04.830Z,96083.94
2022-10-14T01:17:49.981Z,96078.81
2022-10-14T01:20:40.432Z,96079.22
2022-10-14T01:23:27.771Z,96067.41
2022-10-14T01:26:25.588Z,96065.00
2022-10-14T01:29:09.221Z,96054.81
2022-10-14T01:31:42.399Z,96050.09
2022-10-14T01:34:14.531Z,96046.16
2022-10-14T01:36:51.046Z,96039.88
2022-10-14T01:39:27.528Z,96040.69
2022-10-14T01:42:04.211Z,96041.47
2022-10-14T01:44:35.327Z,96039.47
2022-10-14T01:47:05.562Z,96034.41
2022-10-14T01:49:36.204Z,96032.03
2022-10-14T01:52:10.487Z,96032.41
2022-10-14T01:54:43.053Z,96027.69
2022-10-14T01:57:17.189Z,96016.28
2022-10-14T01:59:46.915Z,96012.75
2022-10-14T02:02:14.037Z,96009.19
2022-10-14T02:04:41.548Z,95996.19
2022-10-14T02:07:39.483Z,95998.19
2022-10-14T02:10:41.469Z,95994.25
2022-10-14T02:13:34.254Z,95981.66
2022-10-14T02:16:33.906Z,95979.69
2022-10-14T02:19:34.990Z,95972.63
2022-10-14T02:22:15.931Z,95968.31
2022-10-14T02:24:49.957Z,95967.13
2022-10-14T02:27:19.892Z,95973.44
2022-10-14T02:29:48.986Z,95962.03
2022-10-14T02:32:19.299Z,95953.38
2022-10-14T02:34:50.785Z,95947.00
2022-10-14T02:37:20.248Z,95951.00
2022-10-14T02:40:11.173Z,95952.50
2022-10-14T02:42:38.358Z,95950.63
2022-10-14T02:45:07.657Z,95943.16
2022-10-14T02:47:34.883Z,95954.13
2022-10-14T02:50:01.929Z,95951.78
2022-10-14T02:52:30.374Z,95953.31
2022-10-14T02:54:58.259Z,95949.44
2022-10-14T02:57:25.783Z,95958.09
2022-10-14T02:59:52.855Z,95953.34
2022-10-14T03:02:20.208Z,95952.56
2022-10-14T03:04:48.149Z,95950.19
2022-10-14T03:07:15.350Z,95943.91
2022-10-14T03:09:47.803Z,95944.69
2022-10-14T03:12:15.167Z,95952.56
2022-10-14T03:14:43.904Z,95947.09
2022-10-14T03:17:14.032Z,95956.50
2022-10-14T03:19:41.198Z,95949.41
2022-10-14T03:22:08.780Z,95947.44
2022-10-14T03:24:38.071Z,95939.19
2022-10-14T03:27:27.973Z,95947.47
2022-10-14T03:30:01.047Z,95943.97
2022-10-14T03:32:28.181Z,95949.09
2022-10-14T03:35:17.619Z,95948.66
2022-10-14T03:37:47.140Z,95944.72
2022-10-14T03:40:17.025Z,95941.59
2022-10-14T03:42:44.395Z,95943.56
2022-10-14T03:45:11.561Z,95941.13
2022-10-14T03:47:40.194Z,95937.59
2022-10-14T03:50:07.433Z,95931.34
2022-10-14T03:52:44.879Z,95935.25
2022-10-14T03:55:21.477Z,95932.13
2022-10-14T03:57:51.144Z,95930.16
2022-10-14T04:00:18.940Z,95927.41
2022-10-14T04:02:51.956Z,95922.31
2022-10-14T04:05:34.774Z,95915.63
2022-10-14T04:08:08.463Z,95905.34
2022-10-14T04:10:36.895Z,95905.34
2022-10-14T04:13:04.287Z,95895.09
2022-10-14T04:15:36.909Z,95888.78
2022-10-14T04:18:17.805Z,95888.78
2022-10-14T04:20:45.771Z,95883.28
2022-10-14T04:23:15.308Z,95882.47
2022-10-14T04:25:45.517Z,95886.44
2022-10-14T04:28:14.053Z,95888.78
2022-10-14T04:30:53.428Z,95880.88
2022-10-14T04:33:26.358Z,95889.22
2022-10-14T04:36:01.645Z,95893.16
2022-10-14T04:38:35.625Z,95882.94
2022-10-14T04:41:06.701Z,95884.91
2022-10-14T04:43:36.004Z,95878.53
2022-10-14T04:46:18.423Z,95887.97
2022-10-14T04:48:47.867Z,95879.34
2022-10-14T04:51:15.671Z,95875.81
2022-10-14T04:53:53.332Z,95877.81
2022-10-14T04:56:39.099Z,95880.50
2022-10-14T04:59:06.405Z,95889.94
2022-10-14T05:01:53.787Z,95887.25
2022-10-14T05:04:21.708Z,95887.25
2022-10-14T05:06:50.990Z,95883.72
2022-10-14T05:09:19.403Z,95887.25
2022-10-14T05:11:46.863Z,95893.19
2022-10-14T05:14:17.879Z,95888.00
2022-10-14T05:16:48.701Z,95877.41
2022-10-14T05:19:21.878Z,95880.19
2022-10-14T05:21:51.224Z,95877.03
2022-10-14T05:24:26.872Z,95872.22
2022-10-14T05:26:54.626Z,95864.41
2022-10-14T05:29:21.955Z,95874.66
2022-10-14T05:31:51.463Z,95870.31
2022-10-14T05:34:41.112Z,95862.84
2022-10-14T05:37:11.312Z,95858.00
2022-10-14T05:39:46.597Z,95849.75
2022-10-14T05:42:18.483Z,95850.97
2022-10-14T05:44:45.838Z,95854.13
2022-10-14T05:47:14.670Z,95857.63
2022-10-14T05:49:44.419Z,95857.22
2022-10-14T05:52:12.419Z,95850.88
2022-10-14T05:54:39.837Z,95854.91
2022-10-14T05:57:08.341Z,95844.75
2022-10-14T05:59:35.555Z,95853.34
2022-10-14T06:02:02.811Z,95845.09
2022-10-14T06:04:30.223Z,95840.72
2022-10-14T06:06:58.935Z,95852.47
2022-10-14T06:09:26.211Z,95843.78
2022-10-14T06:11:53.461Z,95839.03
2022-10-14T06:14:20.940Z,95834.28
2022-10-14T06:16:51.032Z,95839.88
2022-10-14T06:19:18.362Z,95845.34
2022-10-14T06:21:45.503Z,95836.66
2022-10-14T06:24:12.698Z,95836.69
2022-10-14T06:26:40.028Z,95837.50
2022-10-14T06:29:07.159Z,95828.03
2022-10-14T06:31:34.264Z,95831.94
2022-10-14T06:34:05.052Z,95832.75
2022-10-14T06:36:32.327Z,95828.72
2022-10-14T06:38:59.381Z,95827.22
2022-10-14T06:41:26.910Z,95815.41
2022-10-14T06:43:54.139Z,95819.34
2022-10-14T06:46:21.315Z,95829.22
2022-10-14T06:48:50.406Z,95820.19
2022-10-14T06:51:17.944Z,95816.16
2022-10-14T06:53:45.039Z,95810.59
2022-10-14T06:56:12.191Z,95811.34
2022-10-14T06:58:39.316Z,95805.78
2022-10-14T07:01:07.497Z,95804.22
2022-10-14T07:03:36.635Z,95799.56
2022-10-14T07:06:05.554Z,95798.81
2022-10-14T07:08:32.697Z,95798.75
2022-10-14T07:10:59.805Z,95792.31
2022-10-14T07:13:27.156Z,95801.75
2022-10-14T07:15:54.287Z,95799.44
2022-10-14T07:18:21.685Z,95800.06
2022-10-14T07:20:49.007Z,95794.91
2022-10-14T07:23:16.740Z,95795.19
2022-10-14T07:25:44.159Z,95795.19
2022-10-14T07:28:11.392Z,95785.81
2022-10-14T07:30:38.809Z,95784.13
2022-10-14T07:33:05.886Z,95788.44
2022-10-14T07:35:32.977Z,95791.19
2022-10-14T07:38:00.136Z,95789.16
2022-10-14T07:40:27.576Z,95808.63
2022-10-14T07:42:54.730Z,95799.94
2022-10-14T07:45:21.949Z,95810.19
2022-10-14T07:47:50.617Z,95801.41
2022-10-14T07:50:18.349Z,95802.41
2022-10-14T07:52:45.378Z,95809.44
2022-10-14T07:55:12.512Z,95798.28
2022-10-14T07:57:39.644Z,95804.81
2022-10-14T08:00:07.484Z,95802.88
2022-10-14T08:02:40.575Z,95793.53
2022-10-14T08:05:33.000Z,95799.16
2022-10-14T08:07:56.015Z,95799.06
2022-10-14T08:10:23.106Z,95790.38
2022-10-14T08:12:51.135Z,95794.53
2022-10-14T08:15:18.231Z,95783.47
2022-10-14T08:17:45.497Z,95782.31
2022-10-14T08:20:12.609Z,95784.78
2022-10-14T08:22:39.730Z,95780.78
2022-10-14T08:25:07.063Z,95782.38
2022-10-14T08:27:34.196Z,95785.88
2022-10-14T08:30:01.581Z,95783.22
2022-10-14T08:32:28.646Z,95785.44
2022-10-14T08:34:55.961Z,95774.38
2022-10-14T08:37:23.323Z,95772.84
2022-10-14T08:39:50.365Z,95767.00
2022-10-14T08:42:30.327Z,95773.00
2022-10-14T08:45:15.299Z,95767.31
2022-10-14T08:47:46.144Z,95762.78
2022-10-14T08:50:30.311Z,95762.56
2022-10-14T08:53:02.396Z,95762.28
2022-10-14T08:55:35.651Z,95757.03
2022-10-14T08:58:18.799Z,95743.22
2022-10-14T09:00:49.896Z,95751.63
2022-10-14T09:03:37.755Z,95752.06
2022-10-14T09:06:33.325Z,95755.09
2022-10-14T09:09:05.076Z,95752.69
2022-10-14T09:11:40.095Z,95745.81
2022-10-14T09:14:11.802Z,95753.16
2022-10-14T09:16:40.327Z,95744.81
2022-10-14T09:19:32.003Z,95744.94
2022-10-14T09:22:01.221Z,95740.47
2022-10-14T09:24:35.864Z,95743.13
2022-10-14T09:27:05.680Z,95742.16
2022-10-14T09:30:02.614Z,95735.94
2022-10-14T09:32:35.299Z,95740.47
2022-10-14T09:35:03.787Z,95735.81
2022-10-14T09:37:36.111Z,95731.06
2022-10-14T09:40:06.239Z,95727.94
2022-10-14T09:42:48.869Z,95724.81
2022-10-14T09:45:24.481Z,95717.66
2022-10-14T09:47:56.124Z,95720.66
2022-10-14T09:50:39.240Z,95724.28
2022-10-14T09:53:17.255Z,95723.88
2022-10-14T09:55:49.786Z,95720.81
2022-10-14T09:58:22.327Z,95714.50
2022-10-14T10:00:56.934Z,95715.59
2022-10-14T10:03:32.425Z,95712.97
2022-10-14T10:06:12.545Z,95718.25
2022-10-14T10:09:07.347Z,95715.34
2022-10-14T10:11:39.075Z,95712.56
2022-10-14T10:14:26.035Z,95715.38
2022-10-14T10:17:08.305Z,95721.47
2022-10-14T10:19:43.031Z,95720.59
2022-10-14T10:25:12.231Z,95713.72
2022-10-14T10:27:47.840Z,95711.38
2022-10-14T10:30:14.901Z,95711.47
2022-10-14T10:32:46.239Z,95704.19
2022-10-14T10:35:52.021Z,95704.78
2022-10-14T10:38:30.887Z,95696.47
2022-10-14T10:41:13.602Z,95706.75
2022-10-14T10:43:57.288Z,95707.44
2022-10-14T10:46:27.297Z,95701.03
2022-10-14T10:49:25.261Z,95703.91
2022-10-14T10:52:20.350Z,95697.72
2022-10-14T10:55:00.497Z,95692.31
2022-10-14T10:57:34.466Z,95683.59
2022-10-14T11:00:07.721Z,95688.19
2022-10-14T11:02:40.678Z,95683.63
2022-10-14T11:05:18.033Z,95676.69
2022-10-14T11:08:18.101Z,95670.22
2022-10-14T11:11:39.276Z,95667.91
2022-10-14T11:14:20.624Z,95677.28
2022-10-14T11:17:06.796Z,95666.94
2022-10-14T11:19:57.307Z,95662.22
2022-10-14T11:23:10.125Z,95657.44
2022-10-14T11:25:55.305Z,95654.34
2022-10-14T11:28:51.428Z,95648.00
2022-10-14T11:31:45.831Z,95660.94
2022-10-14T11:34:33.405Z,95671.59
2022-10-14T11:37:29.856Z,95669.03
2022-10-14T11:40:02.693Z,95675.31
2022-10-14T11:42:54.659Z,95666.59
2022-10-14T11:45:35.572Z,95657.94
2022-10-14T11:48:32.074Z,95664.97
2022-10-14T11:51:10.530Z,95665.94
2022-10-14T11:53:47.056Z,95662.69
2022-10-14T11:56:34.247Z,95676.19
2022-10-14T11:59:32.190Z,95670.72
2022-10-14T12:02:17.561Z,95665.75
2022-10-14T12:04:50.836Z,95667.59
2022-10-14T12:07:26.882Z,95673.16
2022-10-14T12:10:00.308Z,95672.72
2022-10-14T12:12:29.960Z,95668.22
2022-10-14T12:15:07.436Z,95667.28
2022-10-14T12:17:43.415Z,95667.47
2022-10-14T12:20:29.151Z,95670.78
2022-10-14T12:22:58.323Z,95670.84
2022-10-14T12:25:36.654Z,95675.31
2022-10-14T12:28:04.062Z,95665.56
2022-10-14T12:30:36.182Z,95662.31
2022-10-14T12:33:18.828Z,95651.44
2022-10-14T12:35:59.057Z,95645.28
2022-10-14T12:38:29.001Z,95647.03
2022-10-14T12:41:34.639Z,95644.97
2022-10-14T12:44:04.652Z,95632.00
2022-10-14T12:46:31.891Z,95641.50
2022-10-14T12:49:00.372Z,95637.59
2022-10-14T12:51:27.473Z,95641.75
2022-10-14T12:54:26.992Z,95643.91
2022-10-14T12:57:26.144Z,95639.22
2022-10-14T12:59:55.658Z,95628.72
2022-10-14T13:02:22.856Z,95633.56
2022-10-14T13:04:55.082Z,95618.31
2022-10-14T13:07:48.710Z,95614.53
2022-10-14T13:10:47.312Z,95617.91
2022-10-14T13:13:38.235Z,95610.03
2022-10-14T13:16:06.849Z,95623.25
2022-10-14T13:18:42.743Z,95628.16
2022-10-14T13:21:32.788Z,95617.06
2022-10-14T13:24:04.883Z,95630.34
2022-10-14T13:26:48.770Z,95629.63
2022-10-14T13:29:31.008Z,95621.25
2022-10-14T13:32:25.890Z,95630.97
2022-10-14T13:35:38.909Z,95625.78
2022-10-14T13:38:15.435Z,95627.69
2022-10-14T13:40:46.617Z,95634.38
2022-10-14T13:43:38.953Z,95621.59
2022-10-14T13:46:12.088Z,95626.72
2022-10-14T13:48:43.679Z,95619.16
2022-10-14T13:51:24.659Z,95630.34
2022-10-14T13:54:16.316Z,95642.22
2022-10-14T13:56:43.993Z,95631.56
2022-10-14T13:59:43.622Z,95617.34
2022-10-14T14:02:19.003Z,95617.47
2022-10-14T14:04:52.251Z,95605.31
2022-10-14T14:07:47.673Z,95601.41
2022-10-14T14:10:12.051Z,95590.34
2022-10-14T14:12:43.206Z,95590.34
2022-10-14T14:15:26.367Z,95583.53
2022-10-14T14:17:54.395Z,95586.22
2022-10-14T14:20:24.048Z,95582.03
2022-10-14T14:22:53.926Z,95594.84
2022-10-14T14:25:50.625Z,95593.09
2022-10-14T14:28:13.846Z,95589.56
2022-10-14T14:31:04.947Z,95586.22
2022-10-14T14:33:35.025Z,95573.13
2022-10-14T14:36:05.445Z,95577.59
2022-10-14T14:38:35.182Z,95587.16
2022-10-14T14:41:03.144Z,95565.75
2022-10-14T14:43:36.509Z,95572.13
2022-10-14T14:46:05.942Z,95573.25
2022-10-14T14:48:34.729Z,95582.03
2022-10-14T14:51:02.044Z,95583.97
2022-10-14T14:53:29.976Z,95576.31
2022-10-14T14:56:09.076Z,95574.09
2022-10-14T14:58:50.887Z,95567.16
2022-10-14T15:01:26.029Z,95563.19
2022-10-14T15:04:13.136Z,95554.53
2022-10-14T15:06:51.057Z,95561.56
2022-10-14T15:09:46.078Z,95549.06
2022-10-14T15:12:19.507Z,95549.34
2022-10-14T15:14:54.340Z,95553.31
2022-10-14T15:17:39.409Z,95570.25
2022-10-14T15:20:30.422Z,95560.31
2022-10-14T15:22:57.585Z,95564.94
2022-10-14T15:25:31.069Z,95558.84
2022-10-14T15:28:00.307Z,95552.66
2022-10-14T15:30:34.586Z,95552.53
2022-10-14T15:33:04.819Z,95553.44
2022-10-14T15:35:34.777Z,95558.47
2022-10-14T15:38:01.935Z,95551.84
2022-10-14T15:40:31.895Z,95551.03
2022-10-14T15:42:59.042Z,95540.94
2022-10-14T15:45:26.445Z,95527.94
2022-10-14T15:48:01.593Z,95523.53
2022-10-14T15:50:28.867Z,95525.94
2022-10-14T15:52:56.782Z,95516.53
2022-10-14T15:55:26.891Z,95515.13
2022-10-14T15:57:53.946Z,95523.81
2022-10-14T16:00:23.241Z,95528.75
2022-10-14T16:02:58.392Z,95533.13
2022-10-14T16:05:28.904Z,95540.75
2022-10-14T16:07:57.389Z,95550.53
2022-10-14T16:10:28.110Z,95548.66
2022-10-14T16:12:58.041Z,95547.88
2022-10-14T16:15:40.999Z,95534.03
2022-10-14T16:18:08.729Z,95523.09
2022-10-14T16:20:35.831Z,95525.53
2022-10-14T16:23:04.547Z,95531.50
2022-10-14T16:25:39.753Z,95531.03
2022-10-14T16:28:10.020Z,95526.94
2022-10-14T16:30:40.176Z,95510.13
2022-10-14T16:33:07.686Z,95512.34
2022-10-14T16:35:34.850Z,95496.25
2022-10-14T16:38:01.889Z,95495.94
2022-10-14T16:40:31.867Z,95485.63
2022-10-14T16:43:05.650Z,95480.53
2022-10-14T16:45:32.842Z,95485.97
2022-10-14T16:47:59.904Z,95500.78
2022-10-14T16:50:26.974Z,95492.00
2022-10-14T16:53:12.932Z,95489.84
2022-10-14T16:55:39.999Z,95482.66
2022-10-14T16:58:07.072Z,95487.47
2022-10-14T17:00:34.431Z,95483.69
2022-10-14T17:03:02.095Z,95480.38
2022-10-14T17:05:29.213Z,95486.34
2022-10-14T17:07:56.308Z,95489.53
2022-10-14T17:10:24.531Z,95491.81
2022-10-14T17:12:53.657Z,95492.34
2022-10-14T17:15:20.906Z,95494.28
2022-10-14T17:17:47.989Z,95491.34
2022-10-14T17:20:15.069Z,95495.47
2022-10-14T17:22:42.856Z,95499.84
2022-10-14T17:25:10.411Z,95497.09
2022-10-14T17:27:37.859Z,95496.66
2022-10-14T17:30:05.562Z,95508.63
2022-10-14T17:32:32.634Z,95508.06
2022-10-14T17:34:59.727Z,95499.19
2022-10-14T17:37:26.839Z,95501.34
2022-10-14T17:39:53.935Z,95490.19
2022-10-14T17:42:21.214Z,95487.94
2022-10-14T17:44:50.370Z,95482.47
2022-10-14T17:47:17.469Z,95478.34
2022-10-14T17:49:44.555Z,95482.19
2022-10-14T17:52:12.282Z,95473.41
2022-10-14T17:54:39.345Z,95468.97
2022-10-14T17:57:06.431Z,95459.63
2022-10-14T17:59:34.731Z,95466.59
2022-10-14T18:02:03.045Z,95466.03
2022-10-14T18:04:31.501Z,95465.16
2022-10-14T18:06:58.941Z,95478.44
2022-10-14T18:09:26.109Z,95477.63
2022-10-14T18:12:08.067Z,95480.22
2022-10-14T18:14:35.817Z,95487.72
2022-10-14T18:17:02.925Z,95477.47
2022-10-14T18:19:30.019Z,95480.78
2022-10-14T18:21:57.788Z,95473.09
2022-10-14T18:24:25.138Z,95480.84
2022-10-14T18:26:53.192Z,95473.16
2022-10-14T18:29:20.666Z,95475.44
2022-10-14T18:31:49.980Z,95478.66
2022-10-14T18:34:17.436Z,95476.28
2022-10-14T18:36:44.751Z,95465.97
2022-10-14T18:39:13.458Z,95466.19
2022-10-14T18:41:41.743Z,95467.59
2022-10-14T18:44:08.857Z,95456.63
2022-10-14T18:46:37.551Z,95457.13
2022-10-14T18:49:06.707Z,95457.16
2022-10-14T18:51:38.342Z,95456.34
2022-10-14T18:54:10.054Z,95446.91
2022-10-14T18:56:40.836Z,95438.91
2022-10-14T18:59:11.481Z,95443.63
2022-10-14T19:01:39.696Z,95435.00
2022-10-14T19:04:09.477Z,95437.56
2022-10-14T19:06:36.588Z,95426.66
2022-10-14T19:09:04.271Z,95427.75
2022-10-14T19:11:33.382Z,95426.38
2022-10-14T19:14:03.564Z,95420.78
2022-10-14T19:16:36.562Z,95415.34
2022-10-14T19:19:11.527Z,95418.13
2022-10-14T19:21:39.190Z,95418.25
2022-10-14T19:24:08.073Z,95411.06
2022-10-14T19:26:37.666Z,95411.38
2022-10-14T19:29:09.024Z,95415.94
2022-10-14T19:31:39.648Z,95401.97
2022-10-14T19:34:08.800Z,95395.84
2022-10-14T19:36:38.818Z,95397.72
2022-10-14T19:39:08.308Z,95396.56
2022-10-14T19:41:42.698Z,95394.75
2022-10-14T19:44:10.859Z,95388.41
2022-10-14T19:46:38.901Z,95390.22
2022-10-14T19:49:06.204Z,95393.22
2022-10-14T19:51:34.374Z,95374.06
2022-10-14T19:54:02.244Z,95370.31
2022-10-14T19:56:30.161Z,95374.50
2022-10-14T19:58:58.729Z,95372.56
2022-10-14T20:01:28.145Z,95374.13
2022-10-14T20:03:56.116Z,95367.06
2022-10-14T20:06:23.938Z,95357.72
2022-10-14T20:08:51.343Z,95358.00
2022-10-14T20:11:22.032Z,95365.63
2022-10-14T20:13:49.241Z,95358.31
2022-10-14T20:16:17.076Z,95359.16
2022-10-14T20:18:44.252Z,95353.97
2022-10-14T20:21:13.890Z,95344.72
2022-10-14T20:23:41.338Z,95340.28
2022-10-14T20:26:18.154Z,95336.97
2022-10-14T20:28:45.929Z,95338.88
2022-10-14T20:31:15.870Z,95331.31
2022-10-14T20:33:43.423Z,95332.84
2022-10-14T20:36:14.293Z,95333.31
2022-10-14T20:38:42.292Z,95333.13
2022-10-14T20:41:18.481Z,95338.06
2022-10-14T20:43:46.537Z,95332.63
2022-10-14T20:46:13.824Z,95338.13
2022-10-14T20:48:41.223Z,95323.09
2022-10-14T20:51:11.716Z,95328.19
2022-10-14T20:53:38.812Z,95321.09
2022-10-14T20:56:11.192Z,95313.91
2022-10-14T20:58:38.366Z,95310.00
2022-10-14T21:01:13.680Z,95311.47
2022-10-14T21:03:42.371Z,95312.41
2022-10-14T21:06:12.440Z,95313.91
2022-10-14T21:08:40.152Z,95313.31
2022-10-14T21:11:14.048Z,95310.47
2022-10-14T21:13:45.141Z,95305.16
2022-10-14T21:16:13.014Z,95304.19
2022-10-14T21:18:39.981Z,95307.94
2022-10-14T21:21:07.537Z,95298.03
2022-10-14T21:23:35.075Z,95308.66
2022-10-14T21:26:02.197Z,95308.91
2022-10-14T21:28:29.309Z,95303.91
2022-10-14T21:30:56.458Z,95301.91
2022-10-14T21:33:23.533Z,95291.97
2022-10-14T21:35:50.585Z,95287.38
2022-10-14T21:38:17.677Z,95279.66
2022-10-14T21:40:44.776Z,95292.59
2022-10-14T21:43:11.801Z,95282.97
2022-10-14T21:45:38.923Z,95286.72
2022-10-14T21:48:05.995Z,95298.63
2022-10-14T21:50:33.128Z,95292.97
2022-10-14T21:53:00.192Z,95300.50
2022-10-14T21:55:27.312Z,95296.69
2022-10-14T21:57:54.381Z,95296.50
2022-10-14T22:00:21.524Z,95291.25
2022-10-14T22:02:52.902Z,95281.00
2022-10-14T22:05:20.402Z,95276.97
2022-10-14T22:07:47.838Z,95276.47
2022-10-14T22:10:33.595Z,95272.09
2022-10-14T22:13:01.297Z,95270.25
2022-10-14T22:15:28.369Z,95261.34
2022-10-14T22:17:55.479Z,95275.91
2022-10-14T22:20:22.518Z,95274.84
2022-10-14T22:22:49.961Z,95275.81
2022-10-14T22:25:17.083Z,95289.13
2022-10-14T22:27:44.199Z,95282.97
2022-10-14T22:30:12.143Z,95279.91
2022-10-14T22:32:39.328Z,95279.06
2022-10-14T22:35:07.024Z,95281.31
2022-10-14T22:37:34.371Z,95277.97
2022-10-14T22:40:01.486Z,95267.06
2022-10-14T22:44:56.589Z,95259.06
2022-10-14T22:47:23.952Z,95255.03
2022-10-14T22:49:51.270Z,95251.47
2022-10-14T22:52:18.325Z,95249.31
2022-10-14T22:54:47.050Z,95253.22
2022-10-14T22:57:14.177Z,95256.81
2022-10-14T22:59:41.554Z,95260.56
2022-10-14T23:02:08.699Z,95265.72
2022-10-14T23:04:35.742Z,95259.84
2022-10-14T23:07:06.853Z,95267.53
2022-10-14T23:12:02.218Z,95260.16
2022-10-14T23:14:30.528Z,95260.00
2022-10-14T23:16:57.577Z,95259.28
2022-10-14T23:19:24.698Z,95261.56
2022-10-14T23:21:51.753Z,95259.69
2022-10-14T23:24:18.871Z,95259.19
2022-10-14T23:26:45.984Z,95259.44
2022-10-14T23:29:13.044Z,95260.72
2022-10-14T23:31:41.121Z,95259.34
2022-10-14T23:34:12.694Z,95259.72
2022-10-14T23:36:40.496Z,95257.28
2022-10-14T23:39:07.980Z,95264.53
2022-10-14T23:41:35.125Z,95274.00
2022-10-14T23:44:02.975Z,95279.50
2022-10-14T23:46:30.166Z,95269.16
2022-10-14T23:49:06.986Z,95267.47
2022-10-14T23:51:35.389Z,95264.31
2022-10-14T23:54:02.445Z,95266.63
2022-10-14T23:56:29.554Z,95268.19
2022-10-14T23:58:56.651Z,95261.13
